Time;durP1;ratioP1;P1;durP2;ratioP2;P2;SDS_P1;SDS_P2;PMS_P1;PMS_P2;Temp;Humidity;BMP_temperature;BMP_pressure;BME280_temperature;BME280_humidity;BME280_pressure;Samples;Min_cycle;Max_cycle;Signal;HPM_P1;HPM_P2
2022/11/23 00:01:44;;;;;;;74.20;71.53;;;8.80;99.90;;;;;;5015531;28;20506;-83
2022/11/23 00:04:12;;;;;;;66.13;63.63;;;8.80;99.90;;;;;;5002314;28;20447;-83
2022/11/23 00:06:41;;;;;;;55.93;53.83;;;8.90;99.90;;;;;;5006582;28;20453;-83
2022/11/23 00:09:12;;;;;;;53.27;50.70;;;9.00;99.90;;;;;;5022308;28;20457;-83
2022/11/23 00:11:38;;;;;;;58.03;55.67;;;8.90;99.90;;;;;;5022337;28;20474;-83
2022/11/23 00:14:05;;;;;;;45.40;43.50;;;9.00;99.90;;;;;;5017506;28;20485;-83
2022/11/23 00:16:32;;;;;;;36.53;34.80;;;8.90;99.90;;;;;;5014698;28;20458;-83
2022/11/23 00:19:00;;;;;;;24.33;23.13;;;9.00;99.90;;;;;;4997984;28;20458;-83
2022/11/23 00:21:32;;;;;;;20.40;19.30;;;9.00;99.90;;;;;;4999927;28;20989;-83
2022/11/23 00:24:00;;;;;;;26.17;24.33;;;8.90;99.90;;;;;;5015617;28;20449;-83
2022/11/23 00:26:27;;;;;;;18.87;17.10;;;8.90;99.90;;;;;;5016680;28;20457;-83
2022/11/23 00:28:54;;;;;;;19.20;17.87;;;9.00;99.90;;;;;;5016512;28;20453;-83
2022/11/23 00:31:21;;;;;;;21.97;20.77;;;8.80;99.90;;;;;;5016145;28;20852;-83
2022/11/23 00:33:51;;;;;;;26.37;25.13;;;8.90;99.90;;;;;;4997395;28;20478;-83
2022/11/23 00:36:19;;;;;;;30.77;29.07;;;9.00;99.90;;;;;;4998669;28;20453;-83
2022/11/23 00:38:46;;;;;;;25.80;24.70;;;9.00;99.90;;;;;;4997561;28;20461;-83
2022/11/23 00:41:15;;;;;;;25.20;23.70;;;8.90;99.90;;;;;;4998448;28;20485;-83
2022/11/23 00:43:43;;;;;;;22.20;20.93;;;9.10;99.90;;;;;;5012014;28;20951;-81
2022/11/23 00:46:13;;;;;;;18.63;17.43;;;9.00;99.90;;;;;;5017608;28;20480;-83
2022/11/23 00:48:40;;;;;;;25.17;23.77;;;8.90;99.90;;;;;;5002983;28;20454;-83
2022/11/23 00:51:08;;;;;;;28.90;27.70;;;8.90;99.90;;;;;;4997404;28;20473;-82
2022/11/23 00:53:35;;;;;;;27.33;25.67;;;9.00;99.90;;;;;;4998956;28;20497;-83
2022/11/23 00:56:02;;;;;;;22.77;21.60;;;8.90;99.90;;;;;;4998118;28;20458;-83
2022/11/23 00:58:30;;;;;;;22.40;21.00;;;8.90;99.90;;;;;;5010993;28;20457;-83
2022/11/23 01:01:03;;;;;;;25.30;23.70;;;8.90;99.90;;;;;;5018819;28;20457;-82
2022/11/23 01:03:30;;;;;;;21.07;19.97;;;9.10;99.90;;;;;;5008953;28;20450;-82
2022/11/23 01:06:01;;;;;;;19.03;17.97;;;9.00;99.90;;;;;;4998733;28;20461;-83
2022/11/23 01:08:28;;;;;;;25.10;23.50;;;9.00;99.90;;;;;;5009073;28;20456;-82
2022/11/23 01:10:59;;;;;;;21.90;20.27;;;8.80;99.90;;;;;;5019397;28;20460;-83
2022/11/23 01:13:25;;;;;;;19.53;18.30;;;8.90;99.90;;;;;;5003852;28;20453;-82
2022/11/23 01:15:53;;;;;;;16.57;15.30;;;9.00;99.90;;;;;;5000360;28;20461;-83
2022/11/23 01:18:20;;;;;;;12.90;11.67;;;9.00;99.90;;;;;;5017302;28;20449;-83
2022/11/23 01:20:47;;;;;;;12.27;11.07;;;9.20;99.90;;;;;;5018887;28;20457;-82
2022/11/23 01:23:14;;;;;;;10.67;9.67;;;9.10;99.90;;;;;;5001593;28;20478;-83
2022/11/23 01:25:41;;;;;;;8.13;6.00;;;9.10;99.90;;;;;;4999451;28;20966;-83
2022/11/23 01:28:07;;;;;;;9.07;7.70;;;9.20;99.90;;;;;;5018250;28;20453;-84
2022/11/23 01:30:35;;;;;;;6.00;5.40;;;9.20;99.90;;;;;;5018823;28;20460;-82
2022/11/23 01:33:03;;;;;;;9.33;5.20;;;9.20;99.90;;;;;;5000470;28;20589;-83
2022/11/23 01:35:30;;;;;;;9.00;6.13;;;9.20;99.90;;;;;;4999067;28;20486;-84
2022/11/23 01:37:57;;;;;;;11.10;5.20;;;9.20;99.90;;;;;;4999529;28;20457;-82
2022/11/23 01:40:23;;;;;;;10.87;5.37;;;9.30;99.90;;;;;;4999279;28;20453;-82
2022/11/23 01:42:54;;;;;;;10.20;9.30;;;9.20;99.90;;;;;;5010819;28;21014;-82
2022/11/23 01:45:37;;;;;;;9.60;8.70;;;9.20;99.90;;;;;;4999069;28;20449;-82
2022/11/23 01:48:13;;;;;;;11.00;8.03;;;9.20;99.90;;;;;;4998662;28;20462;-82
2022/11/23 01:50:42;;;;;;;11.37;10.00;;;9.20;99.90;;;;;;5003615;28;20452;-82
2022/11/23 01:53:09;;;;;;;10.97;9.87;;;9.10;99.90;;;;;;5003028;28;20482;-82
2022/11/23 01:55:36;;;;;;;14.20;10.77;;;9.10;99.90;;;;;;5019240;28;20480;-82
2022/11/23 01:58:04;;;;;;;10.83;9.83;;;9.10;99.90;;;;;;5022533;28;20461;-84
2022/11/23 02:00:30;;;;;;;11.13;10.33;;;9.10;99.90;;;;;;5007782;28;20450;-83
2022/11/23 02:02:59;;;;;;;12.90;10.50;;;9.10;99.90;;;;;;5004479;28;20482;-82
2022/11/23 02:05:33;;;;;;;9.30;8.60;;;9.10;99.90;;;;;;5023327;28;20453;-83
2022/11/23 02:08:01;;;;;;;9.90;9.20;;;9.10;99.90;;;;;;5023229;28;20839;-83
2022/11/23 02:10:30;;;;;;;12.67;11.77;;;9.10;99.90;;;;;;5022391;28;20495;-83
2022/11/23 02:13:01;;;;;;;13.80;12.40;;;9.10;99.90;;;;;;5021560;28;20479;-82
2022/11/23 02:15:28;;;;;;;15.03;13.93;;;9.10;99.90;;;;;;5002376;28;20481;-83
2022/11/23 02:17:55;;;;;;;17.90;16.57;;;9.00;99.90;;;;;;5019768;28;20441;-82
2022/11/23 02:20:22;;;;;;;23.97;22.47;;;9.10;99.90;;;;;;5011236;28;20450;-83
2022/11/23 02:22:57;;;;;;;22.40;21.10;;;9.10;99.90;;;;;;5001861;28;20489;-82
2022/11/23 02:25:33;;;;;;;26.67;24.73;;;9.00;99.90;;;;;;5012133;28;20452;-83
2022/11/23 02:28:02;;;;;;;21.07;19.50;;;9.00;99.90;;;;;;5022899;28;20456;-82
2022/11/23 02:30:30;;;;;;;24.20;23.00;;;9.00;99.90;;;;;;5011536;28;20445;-82
2022/11/23 02:32:56;;;;;;;27.27;25.47;;;8.90;99.90;;;;;;5002548;28;20469;-83
2022/11/23 02:35:23;;;;;;;28.23;26.43;;;9.00;99.90;;;;;;5017636;28;20477;-82
2022/11/23 02:37:52;;;;;;;24.27;22.87;;;9.00;99.90;;;;;;5022680;28;20459;-81
2022/11/23 02:40:27;;;;;;;25.63;24.10;;;8.90;99.90;;;;;;5005001;28;20446;-82
2022/11/23 02:42:54;;;;;;;28.57;27.10;;;9.00;99.90;;;;;;5002224;28;20509;-83
2022/11/23 02:45:28;;;;;;;32.27;30.77;;;8.90;99.90;;;;;;5018463;28;20448;-81
2022/11/23 02:47:55;;;;;;;29.30;27.80;;;8.90;99.90;;;;;;5020659;28;20452;-80
2022/11/23 02:50:22;;;;;;;45.17;42.97;;;8.90;99.90;;;;;;5021422;28;21017;-83
2022/11/23 02:52:49;;;;;;;49.47;47.50;;;8.90;99.90;;;;;;5006225;28;20477;-82
2022/11/23 02:55:15;;;;;;;51.97;49.27;;;8.90;99.90;;;;;;5001886;28;20512;-82
2022/11/23 02:57:42;;;;;;;44.80;42.70;;;8.90;99.90;;;;;;5014407;28;20457;-82
2022/11/23 03:00:10;;;;;;;41.37;39.57;;;8.90;99.90;;;;;;5021248;28;20464;-80
2022/11/23 03:02:38;;;;;;;28.70;27.20;;;8.90;99.90;;;;;;5019118;28;20503;-83
2022/11/23 03:05:06;;;;;;;29.87;28.57;;;8.90;99.90;;;;;;5016605;28;20450;-83
2022/11/23 03:07:32;;;;;;;36.27;33.97;;;9.00;99.90;;;;;;5001456;28;20481;-82
2022/11/23 03:09:59;;;;;;;45.80;43.23;;;9.00;99.90;;;;;;5005007;28;20461;-82
2022/11/23 03:12:26;;;;;;;40.07;38.20;;;8.90;99.90;;;;;;5021798;28;20485;-83
2022/11/23 03:14:53;;;;;;;60.07;57.07;;;8.80;99.90;;;;;;5022051;28;20508;-82
2022/11/23 03:17:20;;;;;;;76.20;72.43;;;8.80;99.90;;;;;;5022424;28;20461;-83
2022/11/23 03:19:48;;;;;;;55.37;52.40;;;8.70;99.90;;;;;;5011083;28;20833;-82
2022/11/23 03:22:15;;;;;;;50.47;48.00;;;8.70;99.90;;;;;;5002219;28;20477;-82
2022/11/23 03:24:41;;;;;;;42.07;40.17;;;8.80;99.90;;;;;;5001800;28;20450;-82
2022/11/23 03:27:08;;;;;;;40.50;38.60;;;8.90;99.90;;;;;;5002261;28;20462;-82
2022/11/23 03:29:35;;;;;;;47.50;45.40;;;8.90;99.90;;;;;;5009172;28;20833;-82
2022/11/23 03:32:01;;;;;;;47.80;45.70;;;8.70;99.90;;;;;;5002176;28;20481;-81
2022/11/23 03:34:28;;;;;;;63.63;60.47;;;8.70;99.90;;;;;;5001951;28;20482;-82
2022/11/23 03:36:56;;;;;;;81.83;77.90;;;8.80;99.90;;;;;;5001861;28;20461;-82
2022/11/23 03:39:23;;;;;;;91.40;87.73;;;8.60;99.90;;;;;;5006532;28;20460;-82
2022/11/23 03:41:50;;;;;;;100.47;96.93;;;8.60;99.90;;;;;;5021134;28;20484;-81
2022/11/23 03:44:16;;;;;;;99.60;95.70;;;8.70;99.90;;;;;;5021090;28;20798;-82
2022/11/23 03:46:43;;;;;;;97.63;93.27;;;8.50;99.90;;;;;;5021344;28;20453;-82
2022/11/23 03:49:10;;;;;;;83.53;80.53;;;8.60;99.90;;;;;;5018881;28;20453;-82
2022/11/23 03:51:37;;;;;;;85.53;81.93;;;8.60;99.90;;;;;;5001772;28;21001;-82
2022/11/23 03:54:05;;;;;;;85.10;80.90;;;8.60;99.90;;;;;;5001763;28;20453;-81
2022/11/23 03:56:32;;;;;;;91.37;87.57;;;8.70;99.90;;;;;;5001022;28;20461;-82
2022/11/23 03:58:59;;;;;;;82.07;78.67;;;8.70;99.90;;;;;;5001572;28;20465;-82
2022/11/23 04:01:25;;;;;;;81.47;77.47;;;8.70;99.90;;;;;;5021457;28;20481;-83
2022/11/23 04:03:52;;;;;;;99.63;95.50;;;8.70;99.90;;;;;;5012416;28;20442;-82
2022/11/23 04:06:19;;;;;;;94.70;90.83;;;8.70;99.90;;;;;;5001687;28;20828;-82
2022/11/23 04:08:46;;;;;;;90.53;86.57;;;8.60;99.90;;;;;;5015541;28;20450;-81
2022/11/23 04:11:14;;;;;;;66.67;63.97;;;8.80;99.90;;;;;;5010494;28;20462;-83
2022/11/23 04:13:40;;;;;;;63.93;60.87;;;8.70;99.90;;;;;;5012891;28;20477;-83
2022/11/23 04:16:08;;;;;;;60.30;56.63;;;8.70;99.90;;;;;;5001479;28;20477;-83
2022/11/23 04:18:34;;;;;;;60.07;57.17;;;8.80;99.90;;;;;;5007899;28;20458;-82
2022/11/23 04:21:01;;;;;;;53.40;50.67;;;8.70;99.90;;;;;;5012743;28;20456;-82
2022/11/23 04:23:28;;;;;;;58.17;54.93;;;8.60;99.90;;;;;;5017035;28;20454;-83
2022/11/23 04:25:55;;;;;;;59.57;56.93;;;8.70;99.90;;;;;;5022254;28;20450;-83
2022/11/23 04:28:23;;;;;;;67.53;63.90;;;8.70;99.90;;;;;;5015141;28;20809;-82
2022/11/23 04:30:50;;;;;;;63.37;60.60;;;8.60;99.90;;;;;;5018226;28;20449;-82
2022/11/23 04:33:16;;;;;;;49.63;47.40;;;8.60;99.90;;;;;;5022563;28;20460;-83
2022/11/23 04:35:43;;;;;;;41.07;38.80;;;8.60;99.90;;;;;;5017090;28;20473;-83
2022/11/23 04:38:10;;;;;;;40.90;39.20;;;8.70;99.90;;;;;;5021112;28;20457;-82
2022/11/23 04:40:37;;;;;;;38.27;36.40;;;8.70;99.90;;;;;;5018879;28;21081;-82
2022/11/23 04:43:05;;;;;;;37.90;36.30;;;8.70;99.90;;;;;;5020252;28;20477;-82
2022/11/23 04:45:33;;;;;;;54.50;52.07;;;8.80;99.90;;;;;;5002503;28;20848;-83
2022/11/23 04:48:00;;;;;;;84.50;80.37;;;8.60;99.90;;;;;;5011253;28;20964;-82
2022/11/23 04:50:26;;;;;;;110.13;105.97;;;8.60;99.90;;;;;;5017817;28;20466;-83
2022/11/23 04:52:53;;;;;;;102.23;98.33;;;8.50;99.90;;;;;;5009727;28;20473;-82
2022/11/23 04:55:20;;;;;;;100.53;96.63;;;8.50;99.90;;;;;;5013548;28;20466;-82
2022/11/23 04:57:46;;;;;;;103.97;99.63;;;8.50;99.90;;;;;;5001195;28;20458;-82
2022/11/23 05:00:15;;;;;;;98.17;94.13;;;8.40;99.90;;;;;;5008928;28;20460;-81
2022/11/23 05:02:45;;;;;;;112.90;108.70;;;8.50;99.90;;;;;;5019909;28;20854;-82
2022/11/23 05:05:12;;;;;;;153.13;147.20;;;8.40;99.90;;;;;;5008371;28;20450;-82
2022/11/23 05:07:38;;;;;;;215.30;206.87;;;8.40;99.90;;;;;;4999756;28;20455;-82
2022/11/23 05:10:06;;;;;;;257.67;247.90;;;8.30;99.90;;;;;;5018856;28;20453;-82
2022/11/23 05:12:32;;;;;;;313.93;301.73;;;8.30;99.90;;;;;;5018604;28;20473;-82
2022/11/23 05:14:59;;;;;;;332.97;319.40;;;8.20;99.90;;;;;;5018364;28;20481;-83
2022/11/23 05:17:26;;;;;;;340.50;326.73;;;8.20;99.90;;;;;;5017763;28;20485;-83
2022/11/23 05:19:55;;;;;;;324.23;311.37;;;8.20;99.90;;;;;;5015067;28;20456;-82
2022/11/23 05:22:21;;;;;;;314.57;301.67;;;8.20;99.90;;;;;;5017179;28;20465;-83
2022/11/23 05:24:48;;;;;;;325.40;311.53;;;8.20;99.90;;;;;;5017448;28;20465;-82
2022/11/23 05:27:15;;;;;;;231.37;222.37;;;8.20;99.90;;;;;;5018215;28;20454;-82
2022/11/23 05:29:41;;;;;;;242.53;233.53;;;8.30;99.90;;;;;;5008328;28;20455;-82
2022/11/23 05:32:08;;;;;;;185.17;178.23;;;8.20;99.90;;;;;;5006698;28;20475;-82
2022/11/23 05:34:35;;;;;;;139.57;134.60;;;8.20;99.90;;;;;;5019628;28;20456;-82
2022/11/23 05:37:03;;;;;;;152.03;145.80;;;8.40;99.90;;;;;;5002871;28;20454;-83
2022/11/23 05:39:30;;;;;;;154.70;148.07;;;8.30;99.90;;;;;;5016077;28;20476;-82
2022/11/23 05:41:56;;;;;;;128.10;123.13;;;8.30;99.90;;;;;;5019807;28;20469;-83
2022/11/23 05:44:23;;;;;;;126.57;121.97;;;8.30;99.90;;;;;;5019137;28;20459;-81
2022/11/23 05:46:50;;;;;;;144.13;137.37;;;8.30;99.90;;;;;;5014630;28;20454;-82
2022/11/23 05:49:17;;;;;;;107.27;103.50;;;8.30;99.90;;;;;;5000716;28;20462;-83
2022/11/23 05:51:43;;;;;;;143.67;137.83;;;8.30;99.90;;;;;;5004171;28;20469;-83
2022/11/23 05:54:11;;;;;;;175.73;169.13;;;8.30;99.90;;;;;;5020626;28;20464;-83
2022/11/23 05:56:38;;;;;;;160.20;153.77;;;8.20;99.90;;;;;;5019060;28;20474;-83
2022/11/23 05:59:05;;;;;;;187.03;179.87;;;8.20;99.90;;;;;;5021070;28;20460;-83
2022/11/23 06:01:32;;;;;;;270.83;259.53;;;8.20;99.90;;;;;;5019359;28;20481;-85
2022/11/23 06:03:59;;;;;;;304.00;291.60;;;8.10;99.90;;;;;;5020429;28;20453;-83
2022/11/23 06:06:26;;;;;;;319.57;305.87;;;8.10;99.90;;;;;;5014799;28;20450;-83
2022/11/23 06:08:52;;;;;;;334.50;321.00;;;8.00;99.90;;;;;;5001403;28;20458;-83
2022/11/23 06:11:21;;;;;;;357.37;342.93;;;8.00;99.90;;;;;;5006003;28;20479;-83
2022/11/23 06:13:47;;;;;;;349.53;335.57;;;8.00;99.90;;;;;;5021843;28;20465;-83
2022/11/23 06:16:14;;;;;;;347.63;333.27;;;8.00;99.90;;;;;;5018417;28;20513;-83
2022/11/23 06:18:41;;;;;;;344.30;330.57;;;7.90;99.90;;;;;;5002182;28;20453;-83
2022/11/23 06:21:07;;;;;;;350.03;335.60;;;7.80;99.90;;;;;;4999765;28;20457;-82
2022/11/23 06:23:34;;;;;;;364.10;349.00;;;7.90;99.90;;;;;;4999425;28;20454;-83
2022/11/23 06:26:01;;;;;;;375.27;359.40;;;7.80;99.90;;;;;;4999619;28;20461;-82
2022/11/23 06:28:31;;;;;;;340.60;326.83;;;7.80;99.90;;;;;;4998433;28;20454;-82
2022/11/23 06:31:05;;;;;;;344.03;329.30;;;7.80;99.90;;;;;;4996916;28;20458;-80
2022/11/23 06:33:33;;;;;;;294.23;282.73;;;7.80;99.90;;;;;;4997994;28;20457;-82
2022/11/23 06:36:01;;;;;;;278.33;267.67;;;7.80;99.90;;;;;;4999555;28;20564;-83
2022/11/23 06:38:34;;;;;;;245.53;236.03;;;7.80;99.90;;;;;;5021919;28;20463;-83
2022/11/23 06:41:11;;;;;;;198.57;190.93;;;7.80;99.90;;;;;;5017588;28;21007;-82
2022/11/23 06:43:39;;;;;;;187.00;180.40;;;7.80;99.90;;;;;;5002208;28;20478;-82
2022/11/23 06:46:07;;;;;;;154.90;148.90;;;7.80;99.90;;;;;;5013701;28;20508;-81
2022/11/23 06:48:37;;;;;;;138.10;132.63;;;7.90;99.90;;;;;;5019661;28;20476;-83
2022/11/23 06:51:04;;;;;;;110.20;105.43;;;7.80;99.90;;;;;;5008002;28;20835;-83
2022/11/23 06:53:31;;;;;;;92.47;88.63;;;7.90;99.90;;;;;;5007132;28;20454;-84
2022/11/23 06:55:59;;;;;;;56.90;54.50;;;7.90;99.90;;;;;;5011556;28;20480;-83
2022/11/23 06:58:40;;;;;;;39.40;36.50;;;8.00;99.90;;;;;;5004656;28;20865;-82
2022/11/23 07:01:12;;;;;;;32.00;29.93;;;8.10;99.90;;;;;;5020091;28;20456;-83
2022/11/23 07:03:39;;;;;;;37.20;34.63;;;8.00;99.90;;;;;;5009307;28;20465;-83
2022/11/23 07:06:07;;;;;;;18.60;17.13;;;7.90;99.90;;;;;;5018730;28;20457;-83
2022/11/23 07:08:34;;;;;;;18.43;13.60;;;8.10;99.90;;;;;;5008267;28;20454;-83
2022/11/23 07:11:02;;;;;;;17.80;12.93;;;8.10;99.90;;;;;;5005300;28;20485;-83
2022/11/23 07:13:29;;;;;;;14.93;12.70;;;8.20;99.90;;;;;;5011482;28;20460;-84
2022/11/23 07:15:58;;;;;;;10.70;8.93;;;8.20;99.90;;;;;;5024620;28;20503;-83
2022/11/23 07:18:26;;;;;;;14.90;9.83;;;8.00;99.90;;;;;;5016196;28;20449;-83
2022/11/23 07:20:53;;;;;;;11.70;6.07;;;8.10;99.90;;;;;;5005323;28;20461;-83
2022/11/23 07:23:20;;;;;;;12.10;7.30;;;8.00;99.90;;;;;;5016371;28;20449;-82
2022/11/23 07:25:46;;;;;;;7.47;4.80;;;7.90;99.90;;;;;;5023929;28;20459;-83
2022/11/23 07:28:13;;;;;;;13.27;4.10;;;7.80;99.90;;;;;;5004038;28;20465;-84
2022/11/23 07:30:40;;;;;;;16.63;5.33;;;7.70;99.90;;;;;;5012092;28;20449;-81
2022/11/23 07:33:10;;;;;;;6.93;3.73;;;7.70;99.90;;;;;;5017490;28;20474;-81
2022/11/23 07:35:39;;;;;;;8.57;3.87;;;7.60;99.90;;;;;;5006705;28;20470;-82
2022/11/23 07:38:08;;;;;;;12.13;4.87;;;7.50;99.90;;;;;;5013165;28;20947;-82
2022/11/23 07:40:36;;;;;;;7.90;4.50;;;7.50;99.90;;;;;;5016029;28;20455;-82
2022/11/23 07:43:03;;;;;;;12.83;6.07;;;7.40;99.90;;;;;;5017605;28;20503;-83
2022/11/23 07:45:30;;;;;;;14.80;6.30;;;7.40;99.90;;;;;;5008193;28;20457;-82
2022/11/23 07:48:01;;;;;;;8.70;7.30;;;7.30;99.90;;;;;;5002386;28;20450;-83
2022/11/23 07:50:28;;;;;;;10.70;9.90;;;7.30;99.90;;;;;;5005379;28;20979;-82
2022/11/23 07:52:56;;;;;;;12.60;11.50;;;7.30;99.90;;;;;;5004063;28;20505;-83
2022/11/23 07:55:24;;;;;;;23.20;18.43;;;7.30;99.90;;;;;;5019309;28;20488;-84
2022/11/23 07:57:53;;;;;;;26.23;24.30;;;7.20;99.90;;;;;;5027427;28;20464;-82
2022/11/23 08:00:20;;;;;;;32.53;30.53;;;7.20;99.90;;;;;;5017518;28;20515;-82
2022/11/23 08:02:47;;;;;;;30.20;28.60;;;7.30;99.90;;;;;;5016809;28;20492;-81
2022/11/23 08:05:14;;;;;;;31.10;29.60;;;7.30;99.90;;;;;;5019652;28;20491;-81
2022/11/23 08:07:40;;;;;;;32.23;30.07;;;7.40;99.90;;;;;;5014378;28;20465;-80
2022/11/23 08:10:09;;;;;;;30.47;28.67;;;7.50;99.90;;;;;;5016608;28;20461;-82
2022/11/23 08:12:36;;;;;;;30.87;29.00;;;7.50;99.90;;;;;;5013979;28;20485;-81
2022/11/23 08:15:03;;;;;;;34.00;31.93;;;7.50;99.90;;;;;;5004182;28;20894;-80
2022/11/23 08:17:30;;;;;;;36.00;34.20;;;7.50;99.90;;;;;;5000012;28;20493;-81
2022/11/23 08:19:57;;;;;;;46.93;43.97;;;7.50;99.90;;;;;;5000507;28;20450;-81
2022/11/23 08:22:25;;;;;;;49.90;47.60;;;7.50;99.90;;;;;;4998838;28;20470;-83
2022/11/23 08:24:52;;;;;;;56.20;53.00;;;7.50;99.90;;;;;;5012819;28;21026;-83
2022/11/23 08:27:20;;;;;;;62.43;59.07;;;7.60;99.90;;;;;;5021465;28;20441;-85
2022/11/23 08:29:47;;;;;;;79.17;75.80;;;7.60;99.90;;;;;;5007213;28;20457;-82
2022/11/23 08:32:13;;;;;;;71.87;68.70;;;7.50;99.90;;;;;;5007536;28;20548;-82
2022/11/23 08:34:43;;;;;;;88.03;83.80;;;7.60;99.90;;;;;;5019467;28;20487;-82
2022/11/23 08:37:09;;;;;;;99.60;95.20;;;7.60;99.90;;;;;;5019137;28;20501;-82
2022/11/23 08:39:36;;;;;;;119.77;114.77;;;7.60;99.90;;;;;;5003051;28;20458;-82
2022/11/23 08:42:03;;;;;;;121.63;117.07;;;7.60;99.90;;;;;;5006968;28;20492;-81
2022/11/23 08:44:31;;;;;;;125.30;120.50;;;7.70;99.90;;;;;;5020850;28;20464;-81
2022/11/23 08:46:58;;;;;;;128.25;123.25;;;7.70;99.90;;;;;;5017347;28;20451;-81
2022/11/23 08:49:24;;;;;;;105.13;100.80;;;7.90;99.90;;;;;;5018653;28;20198;-82
2022/11/23 08:51:51;;;;;;;78.47;74.70;;;8.00;99.90;;;;;;5019930;28;20523;-82
2022/11/23 08:54:18;;;;;;;64.27;61.10;;;8.10;99.90;;;;;;5018621;28;20457;-82
2022/11/23 08:56:45;;;;;;;58.90;56.07;;;8.20;99.90;;;;;;5020144;28;20484;-81
2022/11/23 08:59:12;;;;;;;42.00;39.63;;;8.20;99.90;;;;;;5020307;28;20669;-81
2022/11/23 09:01:40;;;;;;;29.87;28.20;;;8.30;99.90;;;;;;5020069;28;20507;-81
2022/11/23 09:04:06;;;;;;;14.43;13.13;;;8.30;99.90;;;;;;5021067;28;20964;-82
2022/11/23 09:06:33;;;;;;;14.80;9.90;;;8.50;99.90;;;;;;5020609;28;20457;-82
2022/11/23 09:09:00;;;;;;;13.20;6.50;;;8.60;99.90;;;;;;5020387;28;20453;-83
2022/11/23 09:11:27;;;;;;;15.80;5.07;;;8.70;99.90;;;;;;5020051;28;20473;-81
2022/11/23 09:13:54;;;;;;;10.83;4.87;;;8.70;99.90;;;;;;5020647;28;20457;-81
2022/11/23 09:16:21;;;;;;;8.40;4.07;;;8.80;99.90;;;;;;5020337;28;20501;-82
2022/11/23 09:18:49;;;;;;;16.37;4.50;;;8.90;99.90;;;;;;5019908;28;20457;-82
2022/11/23 09:21:16;;;;;;;8.83;3.80;;;9.00;99.90;;;;;;5020159;28;20470;-82
2022/11/23 09:23:42;;;;;;;11.73;3.23;;;8.90;99.90;;;;;;5020092;28;20516;-81
2022/11/23 09:26:09;;;;;;;12.03;3.57;;;9.00;99.90;;;;;;5019818;28;20453;-82
2022/11/23 09:28:36;;;;;;;14.63;3.73;;;9.00;99.90;;;;;;5019952;28;20454;-81
2022/11/23 09:31:04;;;;;;;9.83;3.33;;;9.00;99.90;;;;;;5019554;28;20457;-82
2022/11/23 09:33:30;;;;;;;15.53;3.40;;;9.10;99.90;;;;;;5020914;28;20454;-82
2022/11/23 09:35:59;;;;;;;13.67;3.10;;;9.00;99.90;;;;;;5020320;28;20480;-82
2022/11/23 09:38:26;;;;;;;7.33;2.27;;;9.00;99.90;;;;;;5020311;28;20460;-82
2022/11/23 09:41:02;;;;;;;9.07;2.20;;;9.00;99.90;;;;;;5018676;28;20460;-82
2022/11/23 09:43:39;;;;;;;17.27;4.60;;;9.10;99.90;;;;;;5020434;28;20452;-82
2022/11/23 09:46:14;;;;;;;20.30;2.90;;;9.20;99.90;;;;;;5020643;28;20452;-82
2022/11/23 09:48:55;;;;;;;10.53;2.70;;;9.10;99.90;;;;;;5020214;28;20452;-82
2022/11/23 09:51:23;;;;;;;14.30;3.17;;;9.10;99.90;;;;;;5019681;28;20476;-82
2022/11/23 09:53:53;;;;;;;14.53;3.20;;;9.10;99.90;;;;;;5020006;28;20732;-82
2022/11/23 09:56:23;;;;;;;12.03;2.23;;;9.10;99.90;;;;;;5018981;28;20473;-82
2022/11/23 09:58:54;;;;;;;13.00;2.97;;;9.00;99.90;;;;;;5019565;28;20545;-82
2022/11/23 10:01:21;;;;;;;8.67;2.20;;;9.00;99.90;;;;;;5020441;28;20496;-82
2022/11/23 10:03:48;;;;;;;13.20;3.73;;;9.10;99.90;;;;;;5019619;28;20461;-82
2022/11/23 10:06:19;;;;;;;9.90;2.83;;;9.10;99.90;;;;;;5019643;28;20461;-82
2022/11/23 10:08:59;;;;;;;9.73;2.27;;;9.10;99.90;;;;;;5019402;28;20449;-82
2022/11/23 10:11:47;;;;;;;9.87;2.00;;;9.20;99.90;;;;;;5022514;28;20481;-83
2022/11/23 10:14:26;;;;;;;7.83;2.40;;;9.50;99.90;;;;;;5024028;28;20456;-82
2022/11/23 10:17:02;;;;;;;16.10;2.60;;;9.70;99.90;;;;;;5022808;28;20484;-81
2022/11/23 10:19:45;;;;;;;13.93;2.20;;;9.80;99.90;;;;;;5023317;28;20459;-82
2022/11/23 10:22:18;;;;;;;6.33;1.80;;;9.90;99.90;;;;;;5023196;28;20484;-82
2022/11/23 10:24:51;;;;;;;13.73;4.03;;;9.90;99.90;;;;;;5023693;28;20457;-82
2022/11/23 10:27:20;;;;;;;7.23;1.63;;;9.90;99.90;;;;;;5023459;28;20460;-82
2022/11/23 10:29:48;;;;;;;9.60;2.30;;;10.00;99.90;;;;;;5023573;28;20457;-82
2022/11/23 10:32:30;;;;;;;7.40;2.60;;;10.00;99.90;;;;;;5023321;28;20469;-83
2022/11/23 10:35:03;;;;;;;7.93;1.87;;;9.90;99.90;;;;;;5023478;28;20974;-82
2022/11/23 10:37:32;;;;;;;7.53;1.70;;;10.00;99.40;;;;;;5023566;28;20488;-82
2022/11/23 10:40:00;;;;;;;9.27;2.00;;;9.90;99.90;;;;;;5023080;28;20993;-82
2022/11/23 10:42:32;;;;;;;10.33;2.37;;;9.80;99.90;;;;;;5022941;28;20495;-82
2022/11/23 10:45:00;;;;;;;7.60;1.97;;;9.70;99.90;;;;;;5022836;28;20846;-82
2022/11/23 10:47:36;;;;;;;9.90;2.37;;;9.80;99.90;;;;;;5023659;28;20452;-82
2022/11/23 10:50:19;;;;;;;7.83;1.80;;;9.70;99.90;;;;;;5023368;28;20939;-82
2022/11/23 10:52:51;;;;;;;11.33;2.17;;;9.80;99.90;;;;;;5023123;28;20472;-82
2022/11/23 10:55:26;;;;;;;6.93;1.90;;;9.80;99.90;;;;;;5023106;28;20967;-82
2022/11/23 10:57:52;;;;;;;7.23;1.83;;;9.90;99.90;;;;;;5022377;28;20476;-83
2022/11/23 11:00:21;;;;;;;8.70;1.70;;;9.90;99.90;;;;;;5022259;28;20453;-81
2022/11/23 11:02:50;;;;;;;8.40;2.10;;;9.90;99.90;;;;;;5023414;28;20845;-83
2022/11/23 11:05:30;;;;;;;6.53;1.70;;;9.80;99.90;;;;;;5023258;28;20974;-83
2022/11/23 11:07:58;;;;;;;6.77;1.40;;;9.80;99.90;;;;;;5023633;28;20469;-83
2022/11/23 11:10:39;;;;;;;7.97;1.47;;;9.80;99.50;;;;;;5022485;28;20459;-83
2022/11/23 11:13:22;;;;;;;11.63;1.90;;;9.70;99.90;;;;;;5023332;28;20477;-82
2022/11/23 11:15:55;;;;;;;12.97;2.37;;;9.70;99.90;;;;;;5022835;28;20903;-83
2022/11/23 11:18:25;;;;;;;6.80;2.17;;;9.70;99.90;;;;;;5023883;28;20828;-82
2022/11/23 11:20:57;;;;;;;5.77;1.90;;;9.60;99.70;;;;;;5022879;28;20448;-80
2022/11/23 11:23:25;;;;;;;7.30;2.33;;;9.60;99.90;;;;;;5022533;28;20453;-82
2022/11/23 11:26:04;;;;;;;10.57;1.90;;;9.70;99.90;;;;;;5022876;28;20457;-82
2022/11/23 11:28:36;;;;;;;13.47;2.60;;;10.00;99.90;;;;;;5023365;28;20464;-83
2022/11/23 11:31:26;;;;;;;8.53;2.20;;;10.10;99.70;;;;;;5022978;28;20449;-82
2022/11/23 11:33:58;;;;;;;6.97;2.07;;;10.40;99.70;;;;;;5023340;28;20503;-82
2022/11/23 11:36:28;;;;;;;11.43;2.17;;;10.60;99.30;;;;;;5022620;28;20855;-83
2022/11/23 11:38:56;;;;;;;11.97;1.80;;;10.80;98.60;;;;;;5023128;28;20843;-82
2022/11/23 11:41:26;;;;;;;12.10;2.00;;;11.00;98.00;;;;;;5023052;28;20473;-83
2022/11/23 11:43:58;;;;;;;6.53;1.70;;;11.00;96.90;;;;;;5023285;28;20484;-83
2022/11/23 11:46:30;;;;;;;11.37;1.80;;;11.00;96.40;;;;;;5023209;28;20982;-83
2022/11/23 11:49:05;;;;;;;5.37;1.50;;;11.00;95.50;;;;;;5023738;28;20453;-83
2022/11/23 11:51:36;;;;;;;15.50;2.07;;;11.00;96.20;;;;;;5022755;28;20481;-83
2022/11/23 11:54:11;;;;;;;7.30;1.60;;;11.00;96.50;;;;;;5023618;28;20453;-83
2022/11/23 11:56:42;;;;;;;9.50;1.63;;;10.80;95.90;;;;;;5023020;28;21089;-83
2022/11/23 11:59:16;;;;;;;9.10;1.70;;;10.60;95.50;;;;;;5023158;28;20449;-82
2022/11/23 12:01:51;;;;;;;6.43;2.53;;;10.80;97.00;;;;;;5023291;28;20531;-83
2022/11/23 12:04:23;;;;;;;7.33;1.87;;;10.80;95.50;;;;;;5024802;28;20457;-83
2022/11/23 12:06:56;;;;;;;5.70;1.40;;;11.20;96.30;;;;;;5008483;28;20850;-79
2022/11/23 12:09:28;;;;;;;8.00;1.80;;;11.50;94.60;;;;;;5021290;28;20449;-82
2022/11/23 12:11:56;;;;;;;7.63;1.37;;;11.50;94.30;;;;;;5022087;28;21077;-83
2022/11/23 12:14:23;;;;;;;11.40;1.83;;;11.30;94.90;;;;;;5019582;28;20449;-84
2022/11/23 12:16:58;;;;;;;5.53;1.50;;;11.20;95.70;;;;;;5007719;28;20473;-82
2022/11/23 12:19:30;;;;;;;10.83;1.73;;;11.50;94.90;;;;;;5012581;28;20453;-82
2022/11/23 12:22:22;;;;;;;10.47;1.87;;;11.70;95.00;;;;;;5015136;28;20478;-83
2022/11/23 12:25:01;;;;;;;11.97;1.20;;;11.60;94.50;;;;;;5005795;28;20533;-83
2022/11/23 12:27:35;;;;;;;6.53;1.63;;;11.50;94.40;;;;;;5008083;28;20449;-82
2022/11/23 12:30:20;;;;;;;8.70;2.20;;;11.60;95.00;;;;;;5009102;28;20453;-83
2022/11/23 12:33:05;;;;;;;10.80;2.00;;;11.60;95.00;;;;;;5013023;28;20472;-84
2022/11/23 12:35:48;;;;;;;4.60;1.20;;;11.50;94.90;;;;;;5018099;28;20446;-83
2022/11/23 12:38:27;;;;;;;4.77;1.50;;;11.50;93.80;;;;;;5007282;28;20501;-83
2022/11/23 12:41:09;;;;;;;6.40;1.70;;;11.80;94.00;;;;;;5006009;28;20465;-83
2022/11/23 12:43:52;;;;;;;7.90;1.47;;;11.90;93.50;;;;;;5021564;28;20475;-83
2022/11/23 12:46:25;;;;;;;6.43;1.30;;;12.10;93.90;;;;;;5015086;28;20458;-83
2022/11/23 12:49:10;;;;;;;6.00;1.53;;;12.20;91.70;;;;;;5010890;28;20481;-83